Time;durP1;ratioP1;P1;durP2;ratioP2;P2;SDS_P1;SDS_P2;PMS_P1;PMS_P2;Temp;Humidity;BMP_temperature;BMP_pressure;BME280_temperature;BME280_humidity;BME280_pressure;Samples;Min_cycle;Max_cycle;Signal;HPM_P1;HPM_P2
2021/06/25 00:02:22;;;;;;;11.05;7.30;;;;;;;14.37;75.71;101910.63;5070623;28;20059;-54
2021/06/25 00:04:48;;;;;;;12.80;8.20;;;;;;;14.26;76.38;101913.13;5088436;28;20052;-54
2021/06/25 00:07:15;;;;;;;10.45;7.90;;;;;;;14.29;76.64;101914.69;5089290;28;20047;-56
2021/06/25 00:09:42;;;;;;;11.48;7.80;;;;;;;14.31;76.35;101921.59;5090057;28;20500;-54
2021/06/25 00:12:09;;;;;;;10.90;8.13;;;;;;;14.31;76.04;101907.53;5070205;28;20044;-60
2021/06/25 00:14:37;;;;;;;10.50;7.72;;;;;;;14.17;76.78;101911.91;5089234;28;20585;-54
2021/06/25 00:17:04;;;;;;;10.52;7.05;;;;;;;14.06;77.17;101911.75;5087757;28;20060;-60
2021/06/25 00:19:31;;;;;;;9.55;6.90;;;;;;;14.02;76.92;101907.59;5088912;28;20040;-60
2021/06/25 00:21:57;;;;;;;9.57;6.78;;;;;;;14.02;76.93;101907.59;5089759;28;20074;-60
2021/06/25 00:24:25;;;;;;;12.52;7.97;;;;;;;13.87;78.15;101909.41;5088226;28;20063;-55
2021/06/25 00:26:51;;;;;;;11.30;7.80;;;;;;;13.81;77.54;101910.63;5088656;28;20113;-55
2021/06/25 00:29:19;;;;;;;10.48;7.55;;;;;;;13.77;77.59;101916.19;5071593;28;20451;-55
2021/06/25 00:31:46;;;;;;;11.98;7.80;;;;;;;13.76;78.10;101911.88;5088231;28;20048;-54
2021/06/25 00:34:13;;;;;;;10.57;7.30;;;;;;;13.72;77.67;101911.19;5070517;28;20052;-52
2021/06/25 00:36:41;;;;;;;11.35;7.28;;;;;;;13.71;77.52;101913.94;5070940;28;20063;-54
2021/06/25 00:39:07;;;;;;;9.68;7.20;;;;;;;13.74;77.25;101911.94;5089005;28;20439;-54
2021/06/25 00:41:34;;;;;;;10.00;7.47;;;;;;;13.60;77.61;101902.22;5089177;28;20069;-60
2021/06/25 00:44:01;;;;;;;10.70;7.80;;;;;;;13.56;78.18;101905.16;5089003;28;20051;-56
2021/06/25 00:46:30;;;;;;;11.27;7.88;;;;;;;13.54;78.26;101899.97;5088500;28;20048;-54
2021/06/25 00:48:58;;;;;;;11.30;8.40;;;;;;;13.39;78.79;101906.16;5088388;28;20040;-55
2021/06/25 00:51:25;;;;;;;10.82;7.57;;;;;;;13.32;78.45;101900.34;5088726;28;20573;-54
2021/06/25 00:53:51;;;;;;;11.23;8.02;;;;;;;13.32;77.79;101909.16;5089179;28;20048;-54
2021/06/25 00:56:18;;;;;;;11.73;7.90;;;;;;;13.30;78.06;101900.44;5088296;28;20501;-60
2021/06/25 00:58:45;;;;;;;11.63;8.05;;;;;;;13.28;78.33;101897.06;5088102;28;20105;-54
2021/06/25 01:01:12;;;;;;;10.73;7.80;;;;;;;13.26;77.92;101896.28;5054068;28;20093;-52
2021/06/25 01:03:41;;;;;;;10.20;7.88;;;;;;;13.26;78.05;101891.00;5087168;28;20044;-60
2021/06/25 01:06:07;;;;;;;11.25;8.73;;;;;;;13.12;78.21;101893.66;5088080;28;20040;-55
2021/06/25 01:08:36;;;;;;;11.57;8.63;;;;;;;13.07;78.26;101888.63;5088328;28;20044;-61
2021/06/25 01:11:04;;;;;;;14.45;8.98;;;;;;;13.10;77.90;101884.94;5092707;28;20056;-60
2021/06/25 01:13:31;;;;;;;12.63;8.90;;;;;;;13.08;77.99;101887.69;5092510;28;20067;-60
2021/06/25 01:15:58;;;;;;;12.45;8.82;;;;;;;13.07;78.21;101883.34;5090387;28;20078;-54
2021/06/25 01:18:25;;;;;;;14.48;9.05;;;;;;;13.03;78.13;101884.47;5074178;28;20052;-60
2021/06/25 01:20:55;;;;;;;12.57;8.82;;;;;;;12.97;78.36;101879.56;5091893;28;20055;-54
2021/06/25 01:23:22;;;;;;;12.50;9.02;;;;;;;12.86;78.38;101880.19;5092634;28;20059;-51
2021/06/25 01:25:49;;;;;;;12.10;8.90;;;;;;;12.87;78.03;101879.25;5092670;28;20121;-55
2021/06/25 01:28:16;;;;;;;12.32;8.57;;;;;;;12.88;77.94;101888.84;5090575;28;20454;-55
2021/06/25 01:30:44;;;;;;;12.82;9.48;;;;;;;12.74;78.62;101888.81;5091953;28;20098;-53
2021/06/25 01:33:14;;;;;;;12.15;8.13;;;;;;;12.79;77.79;101889.41;5090570;28;20488;-54
2021/06/25 01:35:41;;;;;;;11.05;8.43;;;;;;;12.68;77.79;101885.59;5091586;28;20040;-53
2021/06/25 01:38:09;;;;;;;17.10;8.90;;;;;;;12.57;78.30;101892.41;5092061;28;20039;-54
2021/06/25 01:40:37;;;;;;;13.05;9.38;;;;;;;12.48;77.91;101886.72;5091235;28;20097;-52
2021/06/25 01:43:05;;;;;;;13.10;9.43;;;;;;;12.44;78.59;101881.72;5073780;28;20105;-55
2021/06/25 01:45:34;;;;;;;14.45;9.98;;;;;;;12.36;78.67;101884.78;5073623;28;20832;-55
2021/06/25 01:48:02;;;;;;;14.55;9.70;;;;;;;12.33;78.51;101880.50;5090264;28;20044;-55
2021/06/25 01:50:35;;;;;;;16.75;10.52;;;;;;;12.24;78.85;101875.75;5091074;28;20056;-59
2021/06/25 01:53:04;;;;;;;15.73;11.82;;;;;;;12.21;79.16;101881.19;5073843;28;20403;-59
2021/06/25 01:55:41;;;;;;;15.98;11.23;;;;;;;12.22;79.19;101877.63;5090475;28;20471;-59
2021/06/25 01:58:10;;;;;;;18.65;11.68;;;;;;;12.28;79.06;101874.63;5091290;28;20051;-60
2021/06/25 02:00:37;;;;;;;15.98;11.18;;;;;;;12.16;78.38;101878.84;5091115;28;20063;-59
2021/06/25 02:03:04;;;;;;;18.27;11.65;;;;;;;12.05;80.05;101872.44;5089826;28;20048;-54
2021/06/25 02:05:31;;;;;;;19.45;12.98;;;;;;;11.98;81.00;101877.19;5090868;28;20036;-59
2021/06/25 02:07:58;;;;;;;17.48;12.30;;;;;;;11.97;79.31;101883.41;5091852;28;20086;-54
2021/06/25 02:10:25;;;;;;;18.02;12.25;;;;;;;11.95;79.38;101870.31;5091193;28;20047;-59
2021/06/25 02:12:53;;;;;;;16.88;11.60;;;;;;;11.92;80.10;101882.78;5073204;28;20058;-59
2021/06/25 02:15:20;;;;;;;17.33;13.02;;;;;;;11.80;80.39;101871.13;5089895;28;20528;-51
2021/06/25 02:17:47;;;;;;;15.95;11.50;;;;;;;11.86;80.23;101872.56;5091465;28;20353;-54
2021/06/25 02:20:14;;;;;;;17.45;12.35;;;;;;;11.88;79.87;101874.19;5089325;28;20055;-54
2021/06/25 02:22:41;;;;;;;17.08;11.93;;;;;;;11.90;79.94;101876.72;5073832;28;20089;-53
2021/06/25 02:25:09;;;;;;;17.85;11.93;;;;;;;11.82;80.41;101866.59;5091231;28;20781;-52
2021/06/25 02:27:36;;;;;;;21.58;12.80;;;;;;;11.72;80.05;101860.13;5091232;28;20056;-53
2021/06/25 02:30:05;;;;;;;20.42;13.13;;;;;;;11.72;79.92;101866.25;5090350;28;20051;-59
2021/06/25 02:32:32;;;;;;;17.90;12.65;;;;;;;11.56;80.03;101853.06;5090837;28;20040;-59
2021/06/25 02:34:59;;;;;;;18.27;12.25;;;;;;;11.56;80.14;101853.06;5090136;28;20039;-59
2021/06/25 02:37:25;;;;;;;17.33;12.27;;;;;;;11.58;80.34;101853.81;5091108;28;20093;-59
2021/06/25 02:39:52;;;;;;;19.13;12.40;;;;;;;11.48;79.51;101852.63;5091048;28;20447;-59
2021/06/25 02:42:19;;;;;;;18.42;12.13;;;;;;;11.48;80.03;101850.81;5090281;28;20631;-59
2021/06/25 02:44:45;;;;;;;19.85;13.02;;;;;;;11.23;82.73;101851.25;5072267;28;20040;-53
2021/06/25 02:47:12;;;;;;;22.60;14.10;;;;;;;11.13;83.76;101847.41;5072744;28;20052;-54
2021/06/25 02:49:39;;;;;;;19.75;12.70;;;;;;;11.16;83.00;101844.59;5071887;28;20048;-54
2021/06/25 02:52:06;;;;;;;21.55;13.38;;;;;;;11.14;82.15;101844.69;5090531;28;20044;-53
2021/06/25 02:54:35;;;;;;;19.73;12.82;;;;;;;11.23;81.52;101847.78;5090718;28;20067;-52
2021/06/25 02:57:03;;;;;;;19.80;12.70;;;;;;;11.24;81.53;101842.41;5089955;28;20056;-60
2021/06/25 02:59:30;;;;;;;19.52;12.73;;;;;;;11.23;81.35;101848.59;5090125;28;20382;-55
2021/06/25 03:01:57;;;;;;;20.15;13.93;;;;;;;11.16;80.53;101849.88;5090253;28;20580;-54
2021/06/25 03:04:24;;;;;;;20.60;13.07;;;;;;;11.13;80.48;101853.50;5071582;28;20036;-59
2021/06/25 03:06:50;;;;;;;20.23;13.25;;;;;;;11.13;80.47;101847.41;5072346;28;20385;-54
2021/06/25 03:09:17;;;;;;;20.67;13.45;;;;;;;11.07;81.38;101839.81;5090804;28;20040;-60
2021/06/25 03:11:44;;;;;;;22.60;14.00;;;;;;;11.04;82.80;101834.72;5071924;28;20496;-59
2021/06/25 03:14:11;;;;;;;19.65;12.75;;;;;;;11.07;82.20;101830.16;5089705;28;20048;-52
2021/06/25 03:16:38;;;;;;;22.27;14.00;;;;;;;11.01;83.03;101832.25;5089405;28;20082;-60
2021/06/25 03:19:04;;;;;;;18.92;12.40;;;;;;;10.92;83.26;101831.78;5089442;28;20227;-60
2021/06/25 03:21:31;;;;;;;19.48;13.25;;;;;;;10.87;82.24;101822.44;5090111;28;20499;-52
2021/06/25 03:23:58;;;;;;;20.70;13.05;;;;;;;10.94;81.58;101819.38;5072159;28;20553;-59
2021/06/25 03:26:25;;;;;;;18.83;12.77;;;;;;;10.97;81.24;101819.22;5071286;28;20056;-59
2021/06/25 03:28:51;;;;;;;17.77;11.65;;;;;;;11.02;80.59;101826.06;5089692;28;20044;-59
2021/06/25 03:31:21;;;;;;;19.55;12.85;;;;;;;10.94;81.01;101819.38;5088949;28;20052;-59
2021/06/25 03:33:48;;;;;;;19.17;12.23;;;;;;;10.91;81.19;101822.19;5089482;28;20764;-59
2021/06/25 03:36:16;;;;;;;19.55;12.32;;;;;;;10.83;81.63;101822.56;5089563;28;20054;-53
2021/06/25 03:38:43;;;;;;;18.52;12.50;;;;;;;10.74;82.41;101823.00;5090245;28;20040;-58
2021/06/25 03:41:09;;;;;;;21.20;12.52;;;;;;;10.69;82.49;101816.28;5089206;28;20484;-60
2021/06/25 03:43:36;;;;;;;20.15;12.25;;;;;;;10.58;83.26;101815.06;5089573;28;20055;-55
2021/06/25 03:46:03;;;;;;;19.17;12.70;;;;;;;10.51;83.36;101815.44;5090377;28;20097;-54
2021/06/25 03:48:30;;;;;;;21.05;13.50;;;;;;;10.47;84.65;101817.34;5090435;28;20048;-53
2021/06/25 03:50:56;;;;;;;20.38;13.07;;;;;;;10.49;84.79;101820.78;5089102;28;20044;-56
2021/06/25 03:53:23;;;;;;;22.98;14.90;;;;;;;10.48;84.44;101821.69;5089737;28;20044;-54
2021/06/25 03:58:40;;;;;;;20.83;13.93;;;;;;;10.55;84.23;101815.22;5073813;28;20101;-60
2021/06/25 04:01:07;;;;;;;21.95;13.45;;;;;;;10.57;84.11;101807.25;5088769;28;20553;-60
2021/06/25 04:03:35;;;;;;;23.45;13.32;;;;;;;10.62;84.33;101805.22;5087856;28;20036;-59
2021/06/25 04:06:02;;;;;;;20.30;13.13;;;;;;;10.65;84.57;101799.81;5087580;28;20430;-52
2021/06/25 04:08:31;;;;;;;24.17;13.88;;;;;;;10.68;85.14;101798.81;5071639;28;20047;-53
2021/06/25 04:10:59;;;;;;;23.60;14.32;;;;;;;10.76;84.89;101799.28;5071165;28;20435;-59
2021/06/25 04:13:27;;;;;;;22.45;14.10;;;;;;;10.80;85.80;101801.66;5089247;28;20439;-59
2021/06/25 04:15:57;;;;;;;23.25;14.93;;;;;;;10.79;85.80;101807.84;5089058;28;20051;-60
2021/06/25 04:18:24;;;;;;;23.73;14.77;;;;;;;10.83;85.84;101817.28;5071004;28;20052;-58
2021/06/25 04:20:53;;;;;;;24.50;15.60;;;;;;;10.89;86.71;101812.66;5088469;28;20366;-59
2021/06/25 04:23:20;;;;;;;23.48;15.52;;;;;;;11.03;86.30;101817.19;5089421;28;20519;-60
2021/06/25 04:25:47;;;;;;;23.67;15.50;;;;;;;11.14;86.25;101814.88;5089082;28;20047;-59
2021/06/25 04:28:14;;;;;;;22.55;15.05;;;;;;;11.28;86.45;101809.72;5088504;28;20048;-59
2021/06/25 04:30:43;;;;;;;25.27;14.93;;;;;;;11.35;86.15;101810.25;5087094;28;20055;-60
2021/06/25 04:33:12;;;;;;;24.80;15.27;;;;;;;11.40;85.94;101816.13;5088388;28;20614;-59
2021/06/25 04:35:41;;;;;;;26.35;16.73;;;;;;;11.46;87.00;101810.53;5087108;28;20040;-59
2021/06/25 04:38:08;;;;;;;25.73;15.35;;;;;;;11.56;87.43;101803.00;5071582;28;20143;-59
2021/06/25 04:40:39;;;;;;;29.17;16.77;;;;;;;11.67;87.17;101802.44;5087770;28;20109;-59
2021/06/25 04:43:07;;;;;;;28.33;18.10;;;;;;;11.80;86.71;101800.78;5070491;28;20102;-60
2021/06/25 04:45:35;;;;;;;31.08;18.75;;;;;;;11.90;86.97;101806.44;5091974;28;20089;-51
2021/06/25 04:48:04;;;;;;;31.13;19.23;;;;;;;11.99;87.80;101805.94;5090940;28;20066;-59
2021/06/25 04:50:32;;;;;;;30.17;18.45;;;;;;;12.10;87.00;101807.13;5092165;28;20056;-52
2021/06/25 04:52:59;;;;;;;28.70;16.77;;;;;;;12.21;87.07;101807.34;5058543;28;20059;-59
2021/06/25 04:55:26;;;;;;;32.97;19.00;;;;;;;12.32;86.54;101802.34;5093135;28;20056;-59
2021/06/25 04:57:54;;;;;;;27.48;17.55;;;;;;;12.42;86.21;101793.88;5091894;28;20503;-59
2021/06/25 05:00:23;;;;;;;33.10;19.98;;;;;;;12.56;85.76;101801.84;5092819;28;20062;-60
2021/06/25 05:02:51;;;;;;;30.63;17.88;;;;;;;12.64;85.29;101799.63;5074498;28;20048;-60
2021/06/25 05:05:18;;;;;;;26.88;18.60;;;;;;;12.75;84.63;101801.63;5091514;28;20043;-60
2021/06/25 05:07:44;;;;;;;27.63;17.27;;;;;;;12.85;84.12;101807.19;5093064;28;20483;-52
2021/06/25 05:10:12;;;;;;;25.10;16.67;;;;;;;12.96;83.03;101801.28;5074668;28;20063;-51
2021/06/25 05:12:39;;;;;;;23.42;16.15;;;;;;;13.04;82.19;101799.03;5091841;28;20044;-54
2021/06/25 05:15:07;;;;;;;28.55;17.25;;;;;;;13.11;82.38;101788.94;5091695;28;20154;-55
2021/06/25 05:17:34;;;;;;;25.70;16.38;;;;;;;13.21;81.39;101792.72;5074061;28;20098;-60
2021/06/25 05:20:02;;;;;;;25.15;15.70;;;;;;;13.22;79.95;101789.13;5073586;28;20504;-60
2021/06/25 05:22:29;;;;;;;23.85;15.55;;;;;;;13.34;80.09;101791.00;5092408;28;20044;-59
2021/06/25 05:24:56;;;;;;;23.42;15.18;;;;;;;13.40;79.82;101787.16;5073942;28;20052;-54
2021/06/25 05:27:23;;;;;;;24.27;16.58;;;;;;;13.44;80.13;101783.41;5073703;28;20056;-60
2021/06/25 05:29:50;;;;;;;25.80;16.27;;;;;;;13.40;79.11;101784.53;5091733;28;20420;-60
2021/06/25 05:32:17;;;;;;;25.63;15.90;;;;;;;13.39;78.96;101779.34;5092074;28;20048;-59
2021/06/25 05:34:47;;;;;;;22.65;15.27;;;;;;;13.41;78.20;101780.09;5073787;28;20089;-53
2021/06/25 05:37:13;;;;;;;24.90;15.10;;;;;;;13.55;77.85;101771.31;5092339;28;20044;-53
2021/06/25 05:39:41;;;;;;;23.52;15.13;;;;;;;13.57;76.76;101777.34;5092565;28;20056;-54
2021/06/25 05:42:09;;;;;;;22.05;14.40;;;;;;;13.64;76.64;101776.84;5091573;28;20040;-53
2021/06/25 05:44:36;;;;;;;22.40;13.50;;;;;;;13.77;75.48;101784.00;5091681;28;20508;-53
2021/06/25 05:47:04;;;;;;;20.73;13.88;;;;;;;13.85;75.79;101779.06;5091464;28;20094;-52
2021/06/25 05:49:32;;;;;;;22.02;14.23;;;;;;;13.92;75.88;101777.75;5090091;28;20450;-54
2021/06/25 05:51:58;;;;;;;22.13;14.10;;;;;;;13.89;74.63;101772.63;5073640;28;20415;-60
2021/06/25 05:54:25;;;;;;;22.98;13.73;;;;;;;13.98;73.51;101769.41;5073637;28;20040;-60
2021/06/25 05:56:53;;;;;;;23.83;13.43;;;;;;;14.07;73.75;101772.41;5090464;28;21049;-59
2021/06/25 05:59:19;;;;;;;20.80;13.77;;;;;;;14.20;73.13;101781.22;5091694;28;20063;-60
2021/06/25 06:01:46;;;;;;;21.58;13.73;;;;;;;14.27;71.97;101777.22;5090540;28;20059;-54
2021/06/25 06:04:13;;;;;;;19.17;13.85;;;;;;;14.33;70.90;101778.63;5091328;28;20099;-60
2021/06/25 06:06:40;;;;;;;21.15;13.73;;;;;;;14.46;71.97;101787.44;5091021;28;20040;-55
2021/06/25 06:09:06;;;;;;;21.13;13.80;;;;;;;14.54;71.43;101784.28;5057059;28;20060;-55
2021/06/25 06:11:33;;;;;;;20.83;13.90;;;;;;;14.63;70.72;101778.41;5088996;28;20048;-51
2021/06/25 06:14:00;;;;;;;19.27;13.32;;;;;;;14.67;69.86;101779.91;5091545;28;20534;-53
2021/06/25 06:16:27;;;;;;;21.20;14.18;;;;;;;14.76;69.98;101777.56;5072336;28;20577;-60
2021/06/25 06:18:54;;;;;;;21.20;12.88;;;;;;;14.81;70.00;101770.16;5090489;28;20043;-55
2021/06/25 06:21:22;;;;;;;22.02;12.82;;;;;;;14.86;68.47;101763.59;5089992;28;20048;-55
2021/06/25 06:32:23;;;;;;;17.88;12.00;;;;;;;15.23;66.71;101764.63;5090608;28;20476;-53
2021/06/25 06:34:50;;;;;;;15.90;11.18;;;;;;;15.22;65.56;101763.78;5089901;28;20555;-59
2021/06/25 06:37:20;;;;;;;18.58;12.25;;;;;;;15.30;65.47;101769.41;5073050;28;20755;-56
2021/06/25 06:39:47;;;;;;;16.67;11.57;;;;;;;15.37;64.50;101760.06;5090857;28;20113;-55
2021/06/25 06:42:14;;;;;;;16.75;11.77;;;;;;;15.42;64.34;101773.00;5072265;28;20377;-55
2021/06/25 06:44:40;;;;;;;18.33;11.20;;;;;;;15.65;62.73;101767.84;5090703;28;20404;-61
2021/06/25 06:47:07;;;;;;;17.60;12.05;;;;;;;15.71;63.99;101776.19;5090377;28;20043;-60
2021/06/25 06:49:34;;;;;;;17.55;10.70;;;;;;;15.78;63.13;101770.47;5089642;28;20060;-55
2021/06/25 06:52:05;;;;;;;16.73;11.23;;;;;;;15.89;63.41;101770.53;5090672;28;20044;-54
2021/06/25 06:54:32;;;;;;;17.27;11.85;;;;;;;16.00;62.71;101778.56;5091268;28;20051;-61
2021/06/25 06:56:59;;;;;;;18.48;12.07;;;;;;;15.99;63.30;101779.53;5089530;28;20066;-52
2021/06/25 06:59:26;;;;;;;18.80;11.90;;;;;;;16.03;62.59;101770.38;5090884;28;20093;-56
2021/06/25 07:01:53;;;;;;;18.92;12.48;;;;;;;16.18;61.90;101775.50;5090165;28;20419;-56
2021/06/25 07:04:34;;;;;;;17.10;11.75;;;;;;;16.30;63.06;101771.09;5089550;28;20059;-55
2021/06/25 07:07:01;;;;;;;19.85;12.68;;;;;;;16.44;61.65;101778.84;5089416;28;20040;-55
2021/06/25 07:09:28;;;;;;;18.73;13.02;;;;;;;16.58;61.69;101776.97;5090872;28;20322;-60
2021/06/25 07:11:55;;;;;;;18.77;12.93;;;;;;;16.70;61.12;101774.25;5071655;28;20052;-54
2021/06/25 07:14:21;;;;;;;20.20;13.73;;;;;;;16.75;61.93;101781.00;5090456;28;20062;-61
2021/06/25 07:16:48;;;;;;;18.67;12.85;;;;;;;16.95;61.40;101782.16;5071154;28;20051;-54
2021/06/25 07:19:16;;;;;;;17.80;13.02;;;;;;;17.16;60.76;101784.94;5090093;28;20138;-59
2021/06/25 07:21:43;;;;;;;19.33;13.32;;;;;;;17.28;60.80;101777.84;5072608;28;20055;-53
2021/06/25 07:24:10;;;;;;;18.88;13.95;;;;;;;17.49;59.93;101776.13;5088721;28;20040;-55
2021/06/25 07:26:37;;;;;;;18.65;12.90;;;;;;;17.78;59.29;101778.25;5088633;28;20055;-52
2021/06/25 07:29:03;;;;;;;20.52;14.35;;;;;;;17.96;58.96;101778.59;5089832;28;20036;-60
2021/06/25 07:31:30;;;;;;;21.80;14.15;;;;;;;18.24;57.98;101768.31;5071473;28;20117;-52
2021/06/25 07:33:57;;;;;;;21.45;13.93;;;;;;;18.27;58.95;101765.44;5088694;28;20602;-61
2021/06/25 07:36:24;;;;;;;19.98;13.95;;;;;;;18.31;56.97;101764.19;5088467;28;20055;-61
2021/06/25 07:38:51;;;;;;;20.33;13.98;;;;;;;18.16;58.10;101773.44;5090134;28;20492;-53
2021/06/25 07:41:18;;;;;;;22.10;13.55;;;;;;;18.12;57.67;101772.00;5089476;28;20454;-61
2021/06/25 07:43:45;;;;;;;22.83;13.57;;;;;;;18.16;56.69;101768.97;5072107;28;20055;-56
2021/06/25 07:46:11;;;;;;;18.25;12.95;;;;;;;18.29;57.44;101779.44;5089637;28;20048;-54
2021/06/25 07:48:38;;;;;;;21.98;13.77;;;;;;;18.12;58.22;101766.69;5089230;28;20062;-55
2021/06/25 07:51:05;;;;;;;20.30;14.15;;;;;;;18.45;58.02;101767.50;5088418;28;20051;-55
2021/06/25 07:53:32;;;;;;;20.38;13.05;;;;;;;18.64;57.58;101772.09;5071909;28;20067;-54
2021/06/25 07:55:59;;;;;;;20.08;13.27;;;;;;;18.74;56.38;101778.34;5071334;28;20044;-61
2021/06/25 07:58:26;;;;;;;19.15;13.20;;;;;;;18.90;56.71;101772.59;5089194;28;20165;-61
2021/06/25 08:00:52;;;;;;;20.27;14.77;;;;;;;18.92;56.54;101773.28;5070960;28;20069;-60
2021/06/25 08:03:19;;;;;;;22.77;13.45;;;;;;;18.78;57.31;101770.94;5089120;28;20086;-60
2021/06/25 08:05:46;;;;;;;21.23;14.23;;;;;;;18.81;58.49;101776.84;5088959;28;20473;-56
2021/06/25 08:08:13;;;;;;;19.48;14.38;;;;;;;18.82;57.60;101769.72;5089808;28;20043;-60
2021/06/25 08:10:40;;;;;;;20.58;14.27;;;;;;;18.83;57.22;101766.91;5089884;28;20116;-60
2021/06/25 08:13:07;;;;;;;25.70;14.23;;;;;;;18.92;58.28;101775.94;5088184;28;20067;-60
2021/06/25 08:15:34;;;;;;;20.38;14.23;;;;;;;18.79;57.92;101773.47;5089509;28;20511;-60
2021/06/25 08:18:01;;;;;;;21.02;14.43;;;;;;;18.80;58.45;101772.50;5090310;28;20047;-60
2021/06/25 08:20:27;;;;;;;22.02;14.25;;;;;;;18.86;59.34;101771.13;5092900;28;20047;-61
2021/06/25 08:22:55;;;;;;;22.70;15.60;;;;;;;18.64;59.15;101770.31;5093864;28;20480;-56
2021/06/25 08:25:22;;;;;;;22.25;15.68;;;;;;;18.71;59.60;101767.97;5076486;28;20057;-56
2021/06/25 08:27:49;;;;;;;24.52;15.52;;;;;;;18.66;59.92;101773.66;5093133;28;20032;-56
2021/06/25 08:30:16;;;;;;;22.25;15.93;;;;;;;18.70;60.03;101777.75;5093311;28;20048;-62
2021/06/25 08:32:44;;;;;;;24.30;16.63;;;;;;;18.82;59.49;101778.53;5091931;28;20436;-60
2021/06/25 08:35:11;;;;;;;24.52;15.85;;;;;;;18.92;59.71;101774.16;5092704;28;20040;-60
2021/06/25 08:37:38;;;;;;;23.55;16.25;;;;;;;19.03;59.58;101773.22;5093883;28;20048;-60
2021/06/25 08:40:07;;;;;;;22.33;15.63;;;;;;;18.92;61.04;101774.16;5075478;28;20051;-60
2021/06/25 08:42:36;;;;;;;23.60;17.00;;;;;;;18.97;59.43;101765.75;5092407;28;20044;-54
2021/06/25 08:45:05;;;;;;;24.48;16.75;;;;;;;18.86;59.94;101771.13;5092698;28;20044;-56
2021/06/25 08:47:43;;;;;;;27.17;17.85;;;;;;;18.99;60.19;101769.13;5075135;28;20067;-55
2021/06/25 08:50:11;;;;;;;25.45;18.33;;;;;;;18.90;59.69;101764.59;5090771;28;20040;-56
2021/06/25 08:52:45;;;;;;;23.88;17.13;;;;;;;18.84;60.01;101765.09;5093090;28;20123;-56
2021/06/25 08:55:14;;;;;;;25.63;17.10;;;;;;;18.94;60.63;101752.69;5093074;28;20056;-57
2021/06/25 08:57:41;;;;;;;25.90;17.55;;;;;;;19.11;60.03;101743.22;5091466;28;20044;-54
2021/06/25 09:00:10;;;;;;;23.17;17.30;;;;;;;19.03;60.59;101754.56;5074201;28;20052;-56
2021/06/25 09:02:37;;;;;;;27.67;18.60;;;;;;;19.11;60.36;101742.38;5092757;28;20077;-55
2021/06/25 09:05:09;;;;;;;23.67;16.85;;;;;;;19.05;60.11;101754.44;5090492;28;20044;-55
2021/06/25 09:07:43;;;;;;;25.55;17.40;;;;;;;19.08;60.59;101747.00;5092829;28;20048;-55
2021/06/25 09:10:14;;;;;;;26.65;18.40;;;;;;;19.02;60.92;101747.53;5093164;28;20052;-55
2021/06/25 09:13:11;;;;;;;26.38;18.15;;;;;;;18.99;60.31;101750.47;5074242;28;20385;-57
2021/06/25 09:15:40;;;;;;;26.08;18.42;;;;;;;19.18;60.36;101744.38;5069137;28;20060;-61
2021/06/25 09:18:11;;;;;;;27.23;18.80;;;;;;;18.97;60.86;101747.09;5092194;28;20040;-61
2021/06/25 09:20:47;;;;;;;26.15;17.73;;;;;;;19.04;60.94;101736.75;5092134;28;20051;-61
2021/06/25 09:23:15;;;;;;;28.40;18.70;;;;;;;18.95;60.83;101738.41;5091344;28;20067;-60
2021/06/25 09:25:59;;;;;;;26.33;18.40;;;;;;;19.06;61.20;101732.09;5092670;28;20040;-61
2021/06/25 09:28:28;;;;;;;25.40;18.58;;;;;;;19.08;62.13;101733.66;5073903;28;20077;-61
2021/06/25 09:30:56;;;;;;;25.25;18.05;;;;;;;19.06;61.46;101734.78;5072965;28;20047;-60
2021/06/25 09:33:23;;;;;;;26.10;18.95;;;;;;;19.24;60.33;101735.84;5091793;28;20048;-60
2021/06/25 09:35:52;;;;;;;26.85;18.33;;;;;;;19.20;60.46;101736.25;5073653;28;20512;-60
2021/06/25 09:38:35;;;;;;;26.75;18.05;;;;;;;19.17;61.64;101729.38;5092621;28;20105;-56
2021/06/25 09:41:15;;;;;;;25.98;17.25;;;;;;;18.97;61.78;101725.78;5091477;28;20389;-63
2021/06/25 09:43:52;;;;;;;23.63;16.63;;;;;;;18.93;61.60;101727.00;5074421;28;20063;-60
2021/06/25 09:46:36;;;;;;;25.63;17.60;;;;;;;18.94;61.17;101735.84;5091844;28;20048;-60
2021/06/25 09:49:05;;;;;;;26.30;17.95;;;;;;;18.89;61.28;101731.75;5090947;28;20055;-60
2021/06/25 09:51:33;;;;;;;24.63;17.38;;;;;;;19.02;60.87;101723.56;5091604;28;20761;-60
2021/06/25 09:54:12;;;;;;;24.83;16.85;;;;;;;19.16;60.79;101721.50;5091488;28;20040;-61
2021/06/25 09:57:05;;;;;;;28.13;18.23;;;;;;;19.19;61.41;101727.38;5073660;28;20050;-60
2021/06/25 10:02:20;;;;;;;33.35;17.67;;;;;;;19.40;58.25;101722.00;5074449;28;20050;-60
2021/06/25 10:05:20;;;;;;;25.02;17.13;;;;;;;19.50;58.95;101719.34;5090718;28;20067;-60
2021/06/25 10:07:47;;;;;;;24.40;17.42;;;;;;;19.59;59.28;101717.66;5030729;28;20067;-60
2021/06/25 10:10:14;;;;;;;27.20;17.20;;;;;;;19.78;58.84;101724.84;5090749;28;20063;-60
2021/06/25 10:12:43;;;;;;;25.38;17.23;;;;;;;19.85;58.06;101726.03;5091382;28;20119;-54
2021/06/25 10:15:11;;;;;;;24.73;17.58;;;;;;;19.88;57.01;101724.91;5089863;28;20052;-53
2021/06/25 10:17:38;;;;;;;26.50;17.70;;;;;;;19.86;57.46;101718.84;5073548;28;20059;-61
2021/06/25 10:20:10;;;;;;;24.90;16.60;;;;;;;20.32;58.08;101716.44;5090488;28;20048;-60
2021/06/25 10:22:38;;;;;;;22.80;16.85;;;;;;;20.64;56.19;101716.06;5073468;28;20516;-56
2021/06/25 10:25:07;;;;;;;22.27;16.40;;;;;;;20.85;56.81;101715.09;5091458;28;20636;-56
2021/06/25 10:27:35;;;;;;;24.45;16.77;;;;;;;21.13;55.58;101713.25;5090412;28;20508;-55
2021/06/25 10:30:04;;;;;;;22.58;15.85;;;;;;;21.24;56.06;101714.88;5090402;28;20056;-56
2021/06/25 10:32:31;;;;;;;20.95;15.15;;;;;;;21.49;54.43;101725.84;5074063;28;20055;-60
2021/06/25 10:34:58;;;;;;;20.13;14.45;;;;;;;21.25;52.99;101717.41;5090578;28;20385;-56
2021/06/25 10:37:28;;;;;;;20.75;15.43;;;;;;;21.07;54.12;101716.53;5073704;28;20426;-57
2021/06/25 10:39:55;;;;;;;20.25;14.75;;;;;;;21.34;54.38;101721.03;5073908;28;20040;-57
2021/06/25 10:42:38;;;;;;;21.05;14.23;;;;;;;21.36;54.97;101724.38;5088443;28;20055;-57
2021/06/25 10:45:07;;;;;;;20.08;15.10;;;;;;;21.45;53.30;101730.69;5088995;28;20051;-56
2021/06/25 10:47:34;;;;;;;21.08;14.85;;;;;;;21.17;53.18;101719.97;5090861;28;20044;-58
2021/06/25 10:50:01;;;;;;;20.45;15.35;;;;;;;20.99;54.92;101727.97;5071789;28;20048;-58
2021/06/25 10:52:30;;;;;;;20.05;14.98;;;;;;;21.02;53.84;101724.16;5091015;28;20435;-57
2021/06/25 10:55:01;;;;;;;18.63;13.27;;;;;;;21.22;53.41;101727.59;5090850;28;20052;-58
2021/06/25 10:57:58;;;;;;;19.67;13.90;;;;;;;21.19;54.24;101726.03;5090639;28;20058;-57
2021/06/25 11:00:25;;;;;;;19.65;14.10;;;;;;;21.15;53.99;101724.66;5090090;28;20052;-58
2021/06/25 11:02:53;;;;;;;20.52;14.38;;;;;;;21.31;53.24;101726.69;5090852;28;20055;-57
2021/06/25 11:05:26;;;;;;;22.25;14.57;;;;;;;21.28;53.14;101729.66;5072229;28;20126;-57
2021/06/25 11:07:54;;;;;;;18.33;14.15;;;;;;;21.17;52.96;101728.00;5090821;28;20055;-57
2021/06/25 11:10:20;;;;;;;20.30;14.60;;;;;;;21.13;52.91;101723.94;5090792;28;20051;-57
2021/06/25 11:12:48;;;;;;;18.40;12.98;;;;;;;21.07;53.11;101725.38;5088824;28;20056;-57
2021/06/25 11:15:16;;;;;;;20.35;13.55;;;;;;;21.32;52.86;101722.19;5072104;28;20511;-57
2021/06/25 11:17:51;;;;;;;18.25;13.75;;;;;;;21.36;53.53;101724.38;5090673;28;20424;-58
2021/06/25 11:20:21;;;;;;;19.83;13.85;;;;;;;21.40;52.39;101722.25;5071125;28;20051;-58
2021/06/25 11:22:59;;;;;;;19.92;15.07;;;;;;;21.40;52.14;101728.44;5090416;28;20067;-57
2021/06/25 11:25:42;;;;;;;20.63;14.55;;;;;;;21.27;53.25;101727.97;5090351;28;20491;-57
2021/06/25 11:28:31;;;;;;;18.88;14.05;;;;;;;21.50;52.15;101724.88;5071424;28;20039;-56
2021/06/25 11:31:00;;;;;;;18.23;14.30;;;;;;;21.81;52.06;101713.84;5089453;28;20048;-57